sensor_id;sensor_type;location;lat;lon;timestamp;P1;durP1;ratioP1;P2;durP2;ratioP2
60233;SDS011;49514;43.538;-5.708;2022-09-16T00:00:04;5.85;;;1.35;;
60233;SDS011;49514;43.538;-5.708;2022-09-16T00:02:41;5.32;;;1.65;;
60233;SDS011;49514;43.538;-5.708;2022-09-16T00:05:33;7.80;;;1.60;;
60233;SDS011;49514;43.538;-5.708;2022-09-16T00:08:06;10.32;;;1.38;;
60233;SDS011;49514;43.538;-5.708;2022-09-16T00:10:37;4.97;;;1.40;;
60233;SDS011;49514;43.538;-5.708;2022-09-16T00:13:19;2.88;;;1.00;;
60233;SDS011;49514;43.538;-5.708;2022-09-16T00:15:55;5.50;;;1.40;;
60233;SDS011;49514;43.538;-5.708;2022-09-16T00:18:22;6.05;;;1.60;;
60233;SDS011;49514;43.538;-5.708;2022-09-16T00:21:01;9.20;;;1.40;;
60233;SDS011;49514;43.538;-5.708;2022-09-16T00:23:32;6.95;;;1.40;;
60233;SDS011;49514;43.538;-5.708;2022-09-16T00:25:59;6.30;;;1.42;;
60233;SDS011;49514;43.538;-5.708;2022-09-16T00:28:25;6.63;;;1.27;;
60233;SDS011;49514;43.538;-5.708;2022-09-16T00:30:52;3.88;;;1.30;;
60233;SDS011;49514;43.538;-5.708;2022-09-16T00:33:19;4.97;;;1.35;;
60233;SDS011;49514;43.538;-5.708;2022-09-16T00:35:46;7.07;;;1.23;;
60233;SDS011;49514;43.538;-5.708;2022-09-16T00:38:12;10.40;;;1.60;;
60233;SDS011;49514;43.538;-5.708;2022-09-16T00:40:43;6.32;;;1.52;;
60233;SDS011;49514;43.538;-5.708;2022-09-16T00:43:16;9.13;;;1.58;;
60233;SDS011;49514;43.538;-5.708;2022-09-16T00:45:45;6.28;;;1.73;;
60233;SDS011;49514;43.538;-5.708;2022-09-16T00:48:16;8.48;;;1.58;;
60233;SDS011;49514;43.538;-5.708;2022-09-16T00:50:46;6.50;;;1.63;;
60233;SDS011;49514;43.538;-5.708;2022-09-16T00:53:19;5.72;;;1.48;;
60233;SDS011;49514;43.538;-5.708;2022-09-16T00:55:50;5.95;;;1.23;;
60233;SDS011;49514;43.538;-5.708;2022-09-16T01:01:06;3.85;;;1.13;;
60233;SDS011;49514;43.538;-5.708;2022-09-16T01:03:41;5.13;;;1.48;;
60233;SDS011;49514;43.538;-5.708;2022-09-16T01:06:20;6.35;;;1.70;;
60233;SDS011;49514;43.538;-5.708;2022-09-16T01:08:48;6.50;;;1.60;;
60233;SDS011;49514;43.538;-5.708;2022-09-16T01:11:15;8.13;;;1.73;;
60233;SDS011;49514;43.538;-5.708;2022-09-16T01:13:42;3.33;;;1.10;;
60233;SDS011;49514;43.538;-5.708;2022-09-16T01:16:22;6.40;;;1.75;;
60233;SDS011;49514;43.538;-5.708;2022-09-16T01:21:42;5.80;;;1.40;;
60233;SDS011;49514;43.538;-5.708;2022-09-16T01:39:12;8.55;;;1.63;;
60233;SDS011;49514;43.538;-5.708;2022-09-16T01:42:07;4.35;;;1.23;;
60233;SDS011;49514;43.538;-5.708;2022-09-16T01:44:52;7.43;;;1.50;;
60233;SDS011;49514;43.538;-5.708;2022-09-16T01:55:26;5.97;;;1.30;;
60233;SDS011;49514;43.538;-5.708;2022-09-16T01:57:59;6.30;;;1.30;;
60233;SDS011;49514;43.538;-5.708;2022-09-16T02:00:34;4.47;;;1.50;;
60233;SDS011;49514;43.538;-5.708;2022-09-16T02:03:09;5.90;;;1.20;;
60233;SDS011;49514;43.538;-5.708;2022-09-16T02:06:01;5.57;;;1.40;;
60233;SDS011;49514;43.538;-5.708;2022-09-16T02:08:40;6.72;;;1.35;;
60233;SDS011;49514;43.538;-5.708;2022-09-16T02:11:16;6.63;;;1.50;;
60233;SDS011;49514;43.538;-5.708;2022-09-16T02:13:56;5.53;;;1.52;;
60233;SDS011;49514;43.538;-5.708;2022-09-16T02:16:34;6.20;;;1.20;;
60233;SDS011;49514;43.538;-5.708;2022-09-16T02:19:06;9.60;;;1.65;;
60233;SDS011;49514;43.538;-5.708;2022-09-16T02:21:37;5.88;;;1.67;;
60233;SDS011;49514;43.538;-5.708;2022-09-16T02:24:08;6.18;;;1.45;;
60233;SDS011;49514;43.538;-5.708;2022-09-16T02:26:39;6.93;;;1.60;;
60233;SDS011;49514;43.538;-5.708;2022-09-16T02:29:11;5.57;;;1.45;;
60233;SDS011;49514;43.538;-5.708;2022-09-16T02:31:42;5.85;;;1.40;;
60233;SDS011;49514;43.538;-5.708;2022-09-16T02:34:12;8.63;;;1.67;;
60233;SDS011;49514;43.538;-5.708;2022-09-16T02:36:46;3.75;;;1.10;;
60233;SDS011;49514;43.538;-5.708;2022-09-16T02:39:18;5.18;;;1.30;;
60233;SDS011;49514;43.538;-5.708;2022-09-16T02:41:50;5.32;;;1.45;;
60233;SDS011;49514;43.538;-5.708;2022-09-16T02:44:17;6.97;;;2.17;;
60233;SDS011;49514;43.538;-5.708;2022-09-16T02:52:23;4.80;;;1.20;;
60233;SDS011;49514;43.538;-5.708;2022-09-16T02:55:11;8.32;;;1.55;;
60233;SDS011;49514;43.538;-5.708;2022-09-16T02:57:39;8.27;;;2.00;;
60233;SDS011;49514;43.538;-5.708;2022-09-16T03:00:07;6.15;;;1.60;;
60233;SDS011;49514;43.538;-5.708;2022-09-16T03:02:34;5.82;;;1.63;;
60233;SDS011;49514;43.538;-5.708;2022-09-16T03:05:01;8.57;;;1.80;;
60233;SDS011;49514;43.538;-5.708;2022-09-16T03:07:29;6.35;;;1.50;;
60233;SDS011;49514;43.538;-5.708;2022-09-16T03:09:56;8.20;;;1.52;;
60233;SDS011;49514;43.538;-5.708;2022-09-16T03:12:44;5.68;;;1.45;;
60233;SDS011;49514;43.538;-5.708;2022-09-16T03:26:21;8.55;;;1.98;;
60233;SDS011;49514;43.538;-5.708;2022-09-16T03:31:40;9.82;;;2.42;;
60233;SDS011;49514;43.538;-5.708;2022-09-16T03:34:30;6.25;;;2.00;;
60233;SDS011;49514;43.538;-5.708;2022-09-16T03:37:06;10.93;;;2.28;;
60233;SDS011;49514;43.538;-5.708;2022-09-16T03:39:36;5.63;;;1.40;;
60233;SDS011;49514;43.538;-5.708;2022-09-16T03:42:04;10.25;;;2.08;;
60233;SDS011;49514;43.538;-5.708;2022-09-16T03:44:33;5.65;;;1.50;;
60233;SDS011;49514;43.538;-5.708;2022-09-16T03:47:02;7.22;;;1.65;;
60233;SDS011;49514;43.538;-5.708;2022-09-16T03:49:28;7.38;;;1.65;;
60233;SDS011;49514;43.538;-5.708;2022-09-16T03:51:56;6.07;;;2.05;;
60233;SDS011;49514;43.538;-5.708;2022-09-16T03:54:23;6.10;;;1.70;;
60233;SDS011;49514;43.538;-5.708;2022-09-16T03:56:50;5.82;;;1.60;;
60233;SDS011;49514;43.538;-5.708;2022-09-16T03:59:17;5.78;;;1.90;;
60233;SDS011;49514;43.538;-5.708;2022-09-16T04:01:44;5.75;;;1.70;;
60233;SDS011;49514;43.538;-5.708;2022-09-16T04:04:11;8.15;;;2.10;;
60233;SDS011;49514;43.538;-5.708;2022-09-16T04:06:38;8.35;;;2.08;;
60233;SDS011;49514;43.538;-5.708;2022-09-16T04:09:05;5.43;;;1.77;;
60233;SDS011;49514;43.538;-5.708;2022-09-16T04:11:33;8.88;;;2.30;;
60233;SDS011;49514;43.538;-5.708;2022-09-16T04:14:00;9.20;;;2.05;;
60233;SDS011;49514;43.538;-5.708;2022-09-16T04:16:29;12.40;;;2.58;;
60233;SDS011;49514;43.538;-5.708;2022-09-16T04:18:57;7.90;;;2.10;;
60233;SDS011;49514;43.538;-5.708;2022-09-16T04:21:24;8.52;;;2.15;;
60233;SDS011;49514;43.538;-5.708;2022-09-16T04:23:51;7.45;;;2.03;;
60233;SDS011;49514;43.538;-5.708;2022-09-16T04:26:19;12.35;;;2.10;;
60233;SDS011;49514;43.538;-5.708;2022-09-16T04:28:46;10.07;;;2.00;;
60233;SDS011;49514;43.538;-5.708;2022-09-16T04:31:14;7.90;;;2.40;;
60233;SDS011;49514;43.538;-5.708;2022-09-16T04:33:41;7.85;;;2.10;;
60233;SDS011;49514;43.538;-5.708;2022-09-16T04:36:10;6.57;;;2.17;;
60233;SDS011;49514;43.538;-5.708;2022-09-16T04:38:42;8.60;;;2.50;;
60233;SDS011;49514;43.538;-5.708;2022-09-16T04:41:11;6.93;;;2.15;;
60233;SDS011;49514;43.538;-5.708;2022-09-16T04:43:49;6.60;;;2.20;;
60233;SDS011;49514;43.538;-5.708;2022-09-16T04:46:18;9.98;;;2.42;;
60233;SDS011;49514;43.538;-5.708;2022-09-16T04:48:49;10.30;;;2.47;;
60233;SDS011;49514;43.538;-5.708;2022-09-16T04:51:16;5.75;;;1.90;;
60233;SDS011;49514;43.538;-5.708;2022-09-16T04:53:45;8.38;;;2.30;;
60233;SDS011;49514;43.538;-5.708;2022-09-16T04:56:13;7.55;;;2.13;;
60233;SDS011;49514;43.538;-5.708;2022-09-16T04:58:48;7.18;;;2.53;;
60233;SDS011;49514;43.538;-5.708;2022-09-16T05:01:27;7.95;;;2.40;;
60233;SDS011;49514;43.538;-5.708;2022-09-16T05:03:59;8.60;;;2.33;;
60233;SDS011;49514;43.538;-5.708;2022-09-16T05:06:29;8.57;;;2.60;;
60233;SDS011;49514;43.538;-5.708;2022-09-16T05:09:04;7.72;;;2.45;;
60233;SDS011;49514;43.538;-5.708;2022-09-16T05:11:32;7.63;;;1.90;;
60233;SDS011;49514;43.538;-5.708;2022-09-16T05:14:02;7.72;;;2.00;;
60233;SDS011;49514;43.538;-5.708;2022-09-16T05:16:30;8.27;;;2.30;;
60233;SDS011;49514;43.538;-5.708;2022-09-16T05:18:58;5.78;;;1.77;;
60233;SDS011;49514;43.538;-5.708;2022-09-16T05:21:26;6.65;;;2.00;;
60233;SDS011;49514;43.538;-5.708;2022-09-16T05:23:53;8.25;;;2.00;;
60233;SDS011;49514;43.538;-5.708;2022-09-16T05:26:25;8.45;;;2.25;;
60233;SDS011;49514;43.538;-5.708;2022-09-16T05:28:52;6.80;;;1.98;;
60233;SDS011;49514;43.538;-5.708;2022-09-16T05:31:23;8.25;;;1.70;;
60233;SDS011;49514;43.538;-5.708;2022-09-16T05:34:04;6.30;;;2.03;;
60233;SDS011;49514;43.538;-5.708;2022-09-16T05:36:40;12.00;;;2.83;;
60233;SDS011;49514;43.538;-5.708;2022-09-16T05:39:09;11.07;;;1.83;;
60233;SDS011;49514;43.538;-5.708;2022-09-16T05:41:37;5.45;;;2.08;;
60233;SDS011;49514;43.538;-5.708;2022-09-16T05:44:04;9.88;;;1.90;;
60233;SDS011;49514;43.538;-5.708;2022-09-16T05:46:33;7.78;;;2.10;;
60233;SDS011;49514;43.538;-5.708;2022-09-16T05:49:00;9.25;;;2.53;;
60233;SDS011;49514;43.538;-5.708;2022-09-16T05:51:27;8.10;;;2.15;;
60233;SDS011;49514;43.538;-5.708;2022-09-16T05:53:54;9.02;;;2.53;;
60233;SDS011;49514;43.538;-5.708;2022-09-16T05:56:22;7.95;;;2.25;;
60233;SDS011;49514;43.538;-5.708;2022-09-16T05:58:54;11.00;;;2.30;;
60233;SDS011;49514;43.538;-5.708;2022-09-16T06:01:23;12.25;;;2.35;;
60233;SDS011;49514;43.538;-5.708;2022-09-16T06:03:52;8.73;;;2.35;;
60233;SDS011;49514;43.538;-5.708;2022-09-16T06:06:26;7.97;;;2.35;;
60233;SDS011;49514;43.538;-5.708;2022-09-16T06:08:55;6.80;;;2.20;;
60233;SDS011;49514;43.538;-5.708;2022-09-16T06:11:27;7.60;;;2.10;;
60233;SDS011;49514;43.538;-5.708;2022-09-16T06:13:57;17.45;;;2.92;;
60233;SDS011;49514;43.538;-5.708;2022-09-16T06:16:26;11.95;;;2.78;;
60233;SDS011;49514;43.538;-5.708;2022-09-16T06:18:57;11.57;;;2.88;;
60233;SDS011;49514;43.538;-5.708;2022-09-16T06:21:25;13.18;;;3.10;;
60233;SDS011;49514;43.538;-5.708;2022-09-16T06:23:52;7.47;;;2.35;;
60233;SDS011;49514;43.538;-5.708;2022-09-16T06:26:20;8.15;;;2.30;;
60233;SDS011;49514;43.538;-5.708;2022-09-16T06:28:48;13.35;;;2.15;;
60233;SDS011;49514;43.538;-5.708;2022-09-16T06:31:17;6.97;;;2.10;;
60233;SDS011;49514;43.538;-5.708;2022-09-16T06:33:48;11.02;;;2.10;;
60233;SDS011;49514;43.538;-5.708;2022-09-16T06:36:16;14.02;;;3.00;;
60233;SDS011;49514;43.538;-5.708;2022-09-16T06:38:47;17.52;;;3.15;;
60233;SDS011;49514;43.538;-5.708;2022-09-16T06:41:15;15.82;;;3.10;;
60233;SDS011;49514;43.538;-5.708;2022-09-16T06:43:42;16.85;;;3.55;;
60233;SDS011;49514;43.538;-5.708;2022-09-16T06:46:15;19.05;;;3.58;;
60233;SDS011;49514;43.538;-5.708;2022-09-16T06:48:44;12.23;;;3.40;;
60233;SDS011;49514;43.538;-5.708;2022-09-16T06:51:13;18.10;;;3.40;;
60233;SDS011;49514;43.538;-5.708;2022-09-16T06:53:41;28.52;;;4.25;;
60233;SDS011;49514;43.538;-5.708;2022-09-16T06:56:11;31.17;;;4.55;;
60233;SDS011;49514;43.538;-5.708;2022-09-16T06:58:39;19.65;;;4.57;;
60233;SDS011;49514;43.538;-5.708;2022-09-16T07:01:08;21.40;;;4.80;;
60233;SDS011;49514;43.538;-5.708;2022-09-16T07:03:36;12.35;;;4.35;;
60233;SDS011;49514;43.538;-5.708;2022-09-16T07:06:08;17.17;;;4.45;;
60233;SDS011;49514;43.538;-5.708;2022-09-16T07:08:37;16.30;;;3.63;;
60233;SDS011;49514;43.538;-5.708;2022-09-16T07:11:05;20.90;;;3.67;;
60233;SDS011;49514;43.538;-5.708;2022-09-16T07:13:52;21.92;;;4.07;;
60233;SDS011;49514;43.538;-5.708;2022-09-16T07:16:20;17.42;;;2.80;;
60233;SDS011;49514;43.538;-5.708;2022-09-16T07:18:56;22.15;;;2.80;;
60233;SDS011;49514;43.538;-5.708;2022-09-16T07:21:24;15.27;;;4.03;;
60233;SDS011;49514;43.538;-5.708;2022-09-16T07:23:55;47.50;;;8.85;;
60233;SDS011;49514;43.538;-5.708;2022-09-16T07:26:24;47.53;;;9.35;;
60233;SDS011;49514;43.538;-5.708;2022-09-16T07:28:52;10.40;;;2.47;;
60233;SDS011;49514;43.538;-5.708;2022-09-16T07:31:23;15.40;;;3.20;;
60233;SDS011;49514;43.538;-5.708;2022-09-16T07:33:54;43.33;;;7.63;;
60233;SDS011;49514;43.538;-5.708;2022-09-16T07:36:24;37.83;;;8.60;;
60233;SDS011;49514;43.538;-5.708;2022-09-16T07:38:53;34.47;;;6.72;;
60233;SDS011;49514;43.538;-5.708;2022-09-16T07:41:23;27.90;;;5.88;;
60233;SDS011;49514;43.538;-5.708;2022-09-16T07:43:54;33.08;;;6.93;;
60233;SDS011;49514;43.538;-5.708;2022-09-16T07:46:24;22.70;;;5.53;;
60233;SDS011;49514;43.538;-5.708;2022-09-16T07:48:52;28.55;;;5.68;;
60233;SDS011;49514;43.538;-5.708;2022-09-16T07:51:20;10.77;;;3.65;;
60233;SDS011;49514;43.538;-5.708;2022-09-16T07:53:52;11.10;;;3.28;;
60233;SDS011;49514;43.538;-5.708;2022-09-16T07:56:24;9.80;;;2.55;;
60233;SDS011;49514;43.538;-5.708;2022-09-16T07:58:54;18.98;;;3.40;;
60233;SDS011;49514;43.538;-5.708;2022-09-16T08:01:21;15.70;;;3.53;;
60233;SDS011;49514;43.538;-5.708;2022-09-16T08:03:49;12.52;;;3.17;;
60233;SDS011;49514;43.538;-5.708;2022-09-16T08:06:19;14.07;;;2.65;;
60233;SDS011;49514;43.538;-5.708;2022-09-16T08:08:50;8.45;;;2.50;;
60233;SDS011;49514;43.538;-5.708;2022-09-16T08:11:18;9.68;;;2.72;;
60233;SDS011;49514;43.538;-5.708;2022-09-16T08:13:45;9.85;;;3.00;;
60233;SDS011;49514;43.538;-5.708;2022-09-16T08:16:14;7.82;;;3.60;;
60233;SDS011;49514;43.538;-5.708;2022-09-16T08:18:46;15.02;;;4.10;;
60233;SDS011;49514;43.538;-5.708;2022-09-16T08:21:22;16.35;;;3.90;;
60233;SDS011;49514;43.538;-5.708;2022-09-16T08:23:51;10.30;;;4.13;;
60233;SDS011;49514;43.538;-5.708;2022-09-16T08:26:18;17.63;;;5.03;;
60233;SDS011;49514;43.538;-5.708;2022-09-16T08:28:45;15.48;;;4.93;;
60233;SDS011;49514;43.538;-5.708;2022-09-16T08:31:14;14.82;;;5.85;;
60233;SDS011;49514;43.538;-5.708;2022-09-16T08:33:42;17.67;;;5.68;;
60233;SDS011;49514;43.538;-5.708;2022-09-16T08:36:15;15.60;;;5.10;;
60233;SDS011;49514;43.538;-5.708;2022-09-16T08:38:47;16.73;;;5.47;;
60233;SDS011;49514;43.538;-5.708;2022-09-16T08:46:55;13.85;;;4.20;;
60233;SDS011;49514;43.538;-5.708;2022-09-16T08:49:53;10.55;;;3.95;;
60233;SDS011;49514;43.538;-5.708;2022-09-16T08:52:26;12.70;;;4.32;;
60233;SDS011;49514;43.538;-5.708;2022-09-16T08:54:59;12.57;;;5.03;;
60233;SDS011;49514;43.538;-5.708;2022-09-16T08:57:28;21.17;;;5.22;;
60233;SDS011;49514;43.538;-5.708;2022-09-16T09:00:00;16.75;;;5.15;;
60233;SDS011;49514;43.538;-5.708;2022-09-16T09:15:44;12.05;;;3.70;;
60233;SDS011;49514;43.538;-5.708;2022-09-16T09:18:33;12.70;;;3.55;;
60233;SDS011;49514;43.538;-5.708;2022-09-16T09:21:18;9.60;;;2.80;;
60233;SDS011;49514;43.538;-5.708;2022-09-16T09:29:51;6.97;;;2.77;;
60233;SDS011;49514;43.538;-5.708;2022-09-16T09:43:21;14.20;;;3.13;;
60233;SDS011;49514;43.538;-5.708;2022-09-16T09:46:13;10.52;;;3.20;;
60233;SDS011;49514;43.538;-5.708;2022-09-16T09:48:50;10.68;;;2.80;;
60233;SDS011;49514;43.538;-5.708;2022-09-16T09:51:57;10.02;;;2.70;;
60233;SDS011;49514;43.538;-5.708;2022-09-16T09:59:44;16.88;;;3.55;;
60233;SDS011;49514;43.538;-5.708;2022-09-16T10:02:19;10.93;;;2.95;;
60233;SDS011;49514;43.538;-5.708;2022-09-16T10:04:47;12.57;;;3.75;;
60233;SDS011;49514;43.538;-5.708;2022-09-16T10:07:19;19.77;;;5.22;;
60233;SDS011;49514;43.538;-5.708;2022-09-16T10:09:58;14.07;;;4.00;;
60233;SDS011;49514;43.538;-5.708;2022-09-16T10:12:31;8.95;;;3.20;;
60233;SDS011;49514;43.538;-5.708;2022-09-16T10:15:01;16.52;;;3.38;;
60233;SDS011;49514;43.538;-5.708;2022-09-16T10:17:30;11.02;;;3.20;;
60233;SDS011;49514;43.538;-5.708;2022-09-16T10:20:04;13.15;;;2.97;;
60233;SDS011;49514;43.538;-5.708;2022-09-16T10:22:57;7.05;;;1.80;;
60233;SDS011;49514;43.538;-5.708;2022-09-16T10:25:24;6.80;;;1.70;;
60233;SDS011;49514;43.538;-5.708;2022-09-16T10:27:58;8.35;;;1.75;;
60233;SDS011;49514;43.538;-5.708;2022-09-16T10:30:30;6.43;;;1.92;;
60233;SDS011;49514;43.538;-5.708;2022-09-16T10:33:22;11.10;;;3.42;;
60233;SDS011;49514;43.538;-5.708;2022-09-16T10:36:02;10.18;;;2.72;;
60233;SDS011;49514;43.538;-5.708;2022-09-16T10:38:36;11.73;;;3.30;;
60233;SDS011;49514;43.538;-5.708;2022-09-16T10:41:07;9.43;;;3.50;;
60233;SDS011;49514;43.538;-5.708;2022-09-16T10:43:35;15.80;;;3.45;;
60233;SDS011;49514;43.538;-5.708;2022-09-16T10:46:03;8.88;;;3.15;;
60233;SDS011;49514;43.538;-5.708;2022-09-16T10:48:31;9.40;;;2.92;;
60233;SDS011;49514;43.538;-5.708;2022-09-16T10:51:02;10.25;;;2.63;;
60233;SDS011;49514;43.538;-5.708;2022-09-16T10:58:59;10.02;;;3.60;;
60233;SDS011;49514;43.538;-5.708;2022-09-16T11:09:56;9.90;;;3.58;;
60233;SDS011;49514;43.538;-5.708;2022-09-16T11:15:01;13.75;;;2.92;;
60233;SDS011;49514;43.538;-5.708;2022-09-16T11:42:27;9.25;;;1.95;;
60233;SDS011;49514;43.538;-5.708;2022-09-16T11:47:52;9.73;;;2.08;;
60233;SDS011;49514;43.538;-5.708;2022-09-16T11:56:35;8.30;;;1.77;;
60233;SDS011;49514;43.538;-5.708;2022-09-16T12:01:43;10.48;;;1.77;;
60233;SDS011;49514;43.538;-5.708;2022-09-16T12:04:17;11.48;;;2.33;;
60233;SDS011;49514;43.538;-5.708;2022-09-16T12:09:46;6.63;;;1.98;;
60233;SDS011;49514;43.538;-5.708;2022-09-16T12:12:23;8.80;;;2.28;;
60233;SDS011;49514;43.538;-5.708;2022-09-16T12:20:50;8.38;;;1.73;;
60233;SDS011;49514;43.538;-5.708;2022-09-16T12:23:43;8.32;;;2.00;;
60233;SDS011;49514;43.538;-5.708;2022-09-16T12:26:16;9.55;;;1.98;;
60233;SDS011;49514;43.538;-5.708;2022-09-16T12:28:55;7.03;;;1.48;;
60233;SDS011;49514;43.538;-5.708;2022-09-16T12:34:48;8.45;;;1.63;;
60233;SDS011;49514;43.538;-5.708;2022-09-16T12:59:48;7.05;;;1.92;;
60233;SDS011;49514;43.538;-5.708;2022-09-16T13:02:40;9.60;;;2.20;;
60233;SDS011;49514;43.538;-5.708;2022-09-16T13:07:51;7.60;;;2.00;;
60233;SDS011;49514;43.538;-5.708;2022-09-16T13:12:51;3.88;;;1.48;;
60233;SDS011;49514;43.538;-5.708;2022-09-16T13:20:48;8.90;;;2.00;;
60233;SDS011;49514;43.538;-5.708;2022-09-16T13:23:44;5.10;;;1.60;;
60233;SDS011;49514;43.538;-5.708;2022-09-16T13:26:15;5.47;;;1.50;;
60233;SDS011;49514;43.538;-5.708;2022-09-16T13:28:43;8.65;;;2.17;;
60233;SDS011;49514;43.538;-5.708;2022-09-16T13:33:39;9.13;;;1.88;;
60233;SDS011;49514;43.538;-5.708;2022-09-16T13:36:12;12.23;;;2.53;;
60233;SDS011;49514;43.538;-5.708;2022-09-16T13:38:47;5.20;;;1.75;;
60233;SDS011;49514;43.538;-5.708;2022-09-16T13:41:32;9.23;;;2.22;;
60233;SDS011;49514;43.538;-5.708;2022-09-16T13:44:02;5.75;;;1.83;;
60233;SDS011;49514;43.538;-5.708;2022-09-16T13:46:50;10.02;;;2.17;;
60233;SDS011;49514;43.538;-5.708;2022-09-16T13:49:23;7.20;;;2.13;;
60233;SDS011;49514;43.538;-5.708;2022-09-16T13:51:52;8.05;;;2.00;;
60233;SDS011;49514;43.538;-5.708;2022-09-16T13:54:26;7.60;;;2.10;;
60233;SDS011;49514;43.538;-5.708;2022-09-16T13:57:09;7.70;;;2.00;;
60233;SDS011;49514;43.538;-5.708;2022-09-16T14:08:44;6.78;;;1.75;;
60233;SDS011;49514;43.538;-5.708;2022-09-16T14:14:03;7.53;;;2.22;;
60233;SDS011;49514;43.538;-5.708;2022-09-16T14:16:38;10.05;;;1.80;;
60233;SDS011;49514;43.538;-5.708;2022-09-16T14:21:43;7.72;;;1.90;;
60233;SDS011;49514;43.538;-5.708;2022-09-16T14:24:17;6.85;;;1.88;;
60233;SDS011;49514;43.538;-5.708;2022-09-16T14:26:52;6.57;;;1.67;;
60233;SDS011;49514;43.538;-5.708;2022-09-16T14:29:20;10.37;;;1.93;;
60233;SDS011;49514;43.538;-5.708;2022-09-16T14:31:50;8.27;;;2.13;;
60233;SDS011;49514;43.538;-5.708;2022-09-16T14:34:26;9.35;;;2.05;;
60233;SDS011;49514;43.538;-5.708;2022-09-16T14:36:58;9.32;;;2.40;;
60233;SDS011;49514;43.538;-5.708;2022-09-16T14:39:26;9.27;;;2.30;;
60233;SDS011;49514;43.538;-5.708;2022-09-16T15:14:24;8.55;;;1.70;;
60233;SDS011;49514;43.538;-5.708;2022-09-16T15:16:54;8.88;;;1.73;;
60233;SDS011;49514;43.538;-5.708;2022-09-16T15:19:28;6.82;;;1.63;;
60233;SDS011;49514;43.538;-5.708;2022-09-16T15:39:21;7.47;;;1.77;;
60233;SDS011;49514;43.538;-5.708;2022-09-16T15:44:46;7.20;;;1.52;;
60233;SDS011;49514;43.538;-5.708;2022-09-16T15:47:15;7.55;;;1.42;;
60233;SDS011;49514;43.538;-5.708;2022-09-16T15:49:47;7.13;;;1.40;;
60233;SDS011;49514;43.538;-5.708;2022-09-16T15:52:17;13.27;;;2.13;;
60233;SDS011;49514;43.538;-5.708;2022-09-16T15:54:48;5.28;;;1.60;;
60233;SDS011;49514;43.538;-5.708;2022-09-16T16:00:04;7.75;;;1.73;;
60233;SDS011;49514;43.538;-5.708;2022-09-16T16:05:20;6.22;;;1.90;;
60233;SDS011;49514;43.538;-5.708;2022-09-16T16:10:23;7.07;;;1.70;;
60233;SDS011;49514;43.538;-5.708;2022-09-16T16:12:52;5.18;;;1.50;;
60233;SDS011;49514;43.538;-5.708;2022-09-16T16:15:24;6.85;;;1.80;;
60233;SDS011;49514;43.538;-5.708;2022-09-16T16:20:18;6.75;;;1.55;;
60233;SDS011;49514;43.538;-5.708;2022-09-16T16:22:46;8.48;;;1.38;;
60233;SDS011;49514;43.538;-5.708;2022-09-16T16:25:13;6.93;;;1.52;;
60233;SDS011;49514;43.538;-5.708;2022-09-16T16:27:40;9.07;;;1.45;;
60233;SDS011;49514;43.538;-5.708;2022-09-16T16:30:07;7.50;;;2.08;;
60233;SDS011;49514;43.538;-5.708;2022-09-16T16:32:34;8.70;;;1.65;;
60233;SDS011;49514;43.538;-5.708;2022-09-16T16:47:16;6.80;;;1.27;;
60233;SDS011;49514;43.538;-5.708;2022-09-16T16:49:42;6.05;;;1.73;;
60233;SDS011;49514;43.538;-5.708;2022-09-16T16:52:09;7.38;;;1.48;;
60233;SDS011;49514;43.538;-5.708;2022-09-16T16:54:36;8.02;;;1.85;;
60233;SDS011;49514;43.538;-5.708;2022-09-16T16:57:03;6.47;;;1.55;;
60233;SDS011;49514;43.538;-5.708;2022-09-16T16:59:30;8.23;;;1.70;;
60233;SDS011;49514;43.538;-5.708;2022-09-16T17:01:57;6.97;;;1.65;;
60233;SDS011;49514;43.538;-5.708;2022-09-16T17:04:24;9.50;;;1.63;;
60233;SDS011;49514;43.538;-5.708;2022-09-16T17:06:51;6.97;;;1.90;;
60233;SDS011;49514;43.538;-5.708;2022-09-16T17:09:18;8.55;;;1.60;;
60233;SDS011;49514;43.538;-5.708;2022-09-16T17:11:52;7.03;;;1.75;;
60233;SDS011;49514;43.538;-5.708;2022-09-16T17:14:22;6.50;;;1.70;;
60233;SDS011;49514;43.538;-5.708;2022-09-16T17:16:50;6.22;;;1.50;;
60233;SDS011;49514;43.538;-5.708;2022-09-16T17:19:20;5.88;;;1.40;;
60233;SDS011;49514;43.538;-5.708;2022-09-16T17:21:47;5.53;;;1.75;;
60233;SDS011;49514;43.538;-5.708;2022-09-16T17:24:22;7.53;;;1.70;;
60233;SDS011;49514;43.538;-5.708;2022-09-16T17:26:49;8.90;;;1.80;;
60233;SDS011;49514;43.538;-5.708;2022-09-16T17:29:16;7.45;;;1.80;;
60233;SDS011;49514;43.538;-5.708;2022-09-16T17:31:43;6.18;;;1.70;;
60233;SDS011;49514;43.538;-5.708;2022-09-16T17:34:11;6.70;;;1.23;;
60233;SDS011;49514;43.538;-5.708;2022-09-16T17:36:40;5.65;;;1.67;;
60233;SDS011;49514;43.538;-5.708;2022-09-16T17:39:13;9.00;;;1.85;;
60233;SDS011;49514;43.538;-5.708;2022-09-16T17:41:46;10.60;;;1.80;;
60233;SDS011;49514;43.538;-5.708;2022-09-16T17:44:16;8.10;;;2.20;;
60233;SDS011;49514;43.538;-5.708;2022-09-16T17:46:44;6.78;;;1.73;;
60233;SDS011;49514;43.538;-5.708;2022-09-16T17:49:15;10.25;;;2.10;;
60233;SDS011;49514;43.538;-5.708;2022-09-16T17:51:44;8.43;;;1.52;;
60233;SDS011;49514;43.538;-5.708;2022-09-16T17:54:11;8.27;;;1.80;;
60233;SDS011;49514;43.538;-5.708;2022-09-16T17:56:38;9.07;;;1.98;;
60233;SDS011;49514;43.538;-5.708;2022-09-16T17:59:07;10.88;;;2.10;;
60233;SDS011;49514;43.538;-5.708;2022-09-16T18:01:35;7.10;;;1.77;;
60233;SDS011;49514;43.538;-5.708;2022-09-16T18:04:01;7.18;;;1.67;;
60233;SDS011;49514;43.538;-5.708;2022-09-16T18:06:34;11.43;;;2.20;;
60233;SDS011;49514;43.538;-5.708;2022-09-16T18:09:11;7.15;;;1.98;;
60233;SDS011;49514;43.538;-5.708;2022-09-16T18:11:39;10.93;;;2.38;;
60233;SDS011;49514;43.538;-5.708;2022-09-16T18:14:06;6.93;;;1.60;;
60233;SDS011;49514;43.538;-5.708;2022-09-16T18:16:35;13.80;;;2.10;;
60233;SDS011;49514;43.538;-5.708;2022-09-16T18:19:02;5.60;;;1.70;;
60233;SDS011;49514;43.538;-5.708;2022-09-16T18:21:30;8.27;;;2.10;;
60233;SDS011;49514;43.538;-5.708;2022-09-16T18:23:59;4.80;;;1.67;;
60233;SDS011;49514;43.538;-5.708;2022-09-16T18:26:27;6.53;;;1.63;;
60233;SDS011;49514;43.538;-5.708;2022-09-16T18:28:55;6.50;;;1.50;;
60233;SDS011;49514;43.538;-5.708;2022-09-16T18:31:23;8.10;;;1.80;;
60233;SDS011;49514;43.538;-5.708;2022-09-16T18:33:50;11.02;;;2.00;;
60233;SDS011;49514;43.538;-5.708;2022-09-16T18:36:18;7.72;;;1.70;;
60233;SDS011;49514;43.538;-5.708;2022-09-16T18:38:52;6.40;;;1.92;;
60233;SDS011;49514;43.538;-5.708;2022-09-16T18:41:20;10.25;;;1.83;;
60233;SDS011;49514;43.538;-5.708;2022-09-16T18:43:56;6.85;;;1.50;;
60233;SDS011;49514;43.538;-5.708;2022-09-16T18:46:26;6.60;;;1.50;;
60233;SDS011;49514;43.538;-5.708;2022-09-16T18:48:56;5.85;;;1.60;;
60233;SDS011;49514;43.538;-5.708;2022-09-16T18:51:31;6.22;;;1.98;;
60233;SDS011;49514;43.538;-5.708;2022-09-16T18:53:59;7.35;;;1.88;;
60233;SDS011;49514;43.538;-5.708;2022-09-16T18:56:31;9.35;;;1.90;;
60233;SDS011;49514;43.538;-5.708;2022-09-16T18:59:00;11.77;;;2.15;;
60233;SDS011;49514;43.538;-5.708;2022-09-16T19:01:30;7.72;;;1.40;;
60233;SDS011;49514;43.538;-5.708;2022-09-16T19:03:59;9.13;;;1.90;;
60233;SDS011;49514;43.538;-5.708;2022-09-16T19:06:29;8.80;;;2.08;;
60233;SDS011;49514;43.538;-5.708;2022-09-16T19:08:58;9.18;;;2.35;;
60233;SDS011;49514;43.538;-5.708;2022-09-16T19:11:26;6.93;;;1.80;;
60233;SDS011;49514;43.538;-5.708;2022-09-16T19:13:53;8.88;;;1.80;;
60233;SDS011;49514;43.538;-5.708;2022-09-16T19:16:20;11.93;;;2.33;;
60233;SDS011;49514;43.538;-5.708;2022-09-16T19:18:50;12.20;;;2.17;;
60233;SDS011;49514;43.538;-5.708;2022-09-16T19:21:19;7.72;;;2.08;;
60233;SDS011;49514;43.538;-5.708;2022-09-16T19:23:51;5.57;;;1.65;;
60233;SDS011;49514;43.538;-5.708;2022-09-16T19:28:48;11.52;;;2.13;;
60233;SDS011;49514;43.538;-5.708;2022-09-16T19:31:15;10.93;;;2.00;;
60233;SDS011;49514;43.538;-5.708;2022-09-16T19:33:42;6.40;;;1.60;;
60233;SDS011;49514;43.538;-5.708;2022-09-16T19:36:13;11.25;;;2.28;;